This is the latest recevied weather packets stored in our database for station/object DB0TGO-13. If no packets are shown the sender has not sent any weather packets the latest 10 day(s).
| Time | Temp. | Humidity | Pressure | Rain* | Wind** | Luminosity | Snow |
|---|---|---|---|---|---|---|---|
| 1777963502 | 13.89° C | 82% | 1004.6 hPa | - | - | - | - |
| 1777962602 | 13.89° C | 82% | 1004.6 hPa | - | - | - | - |
| 1777961702 | 13.89° C | 82% | 1004.5 hPa | - | - | - | - |
| 1777960802 | 13.89° C | 82% | 1004.5 hPa | - | - | - | - |
| 1777959902 | 13.89° C | 80% | 1004.5 hPa | - | - | - | - |
| 1777959002 | 13.89° C | 80% | 1004.5 hPa | - | - | - | - |
| 1777958103 | 13.33° C | 83% | 1004.7 hPa | - | - | - | - |
| 1777957202 | 13.33° C | 83% | 1004.7 hPa | - | - | - | - |
| 1777956303 | 13.33° C | 81% | 1004.6 hPa | - | - | - | - |
| 1777955402 | 13.33° C | 81% | 1004.6 hPa | - | - | - | - |
| 1777954502 | 13.33° C | 81% | 1004.8 hPa | - | - | - | - |
| 1777953603 | 13.33° C | 81% | 1004.8 hPa | - | - | - | - |
| 1777952702 | 13.33° C | 81% | 1004.9 hPa | - | - | - | - |
| 1777951802 | 13.33° C | 81% | 1004.9 hPa | - | - | - | - |
| 1777950902 | 13.89° C | 77% | 1005.3 hPa | - | - | - | - |
| 1777950003 | 13.89° C | 77% | 1005.3 hPa | - | - | - | - |
| 1777927502 | 16.67° C | 66% | 1006.4 hPa | - | - | - | - |
| 1777926603 | 16.67° C | 66% | 1006.4 hPa | - | - | - | - |
| 1777925702 | 16.67° C | 68% | 1006.3 hPa | - | - | - | - |
| 1777924802 | 16.67° C | 68% | 1006.3 hPa | - | - | - | - |
| 1777923902 | 17.22° C | 66% | 1006.2 hPa | - | - | - | - |
| 1777923002 | 17.22° C | 66% | 1006.2 hPa | - | - | - | - |
| 1777922102 | 17.78° C | 65% | 1006.1 hPa | - | - | - | - |
| 1777921202 | 17.78° C | 65% | 1006.1 hPa | - | - | - | - |
| 1777920302 | 18.89° C | 62% | 1006 hPa | - | - | - | - |
* Rain since midnight (hover to see other rain measurements)
** Current wind speed in m/s (hover to see current wind gust speed)